Terminal Aerodrome Forecast
Issued by NWS

Home | Current Version | Previous Version | Text Only | Print | Product List | Glossary On
Versions: 1 2 3 4 5 6 7 8 9 10 11 12 13 14 15 16 17 18 19 20
000
FTUS41 KBOX 251120
TAFBAF
TAF
KBAF 251120Z 2512/2612 00000KT P6SM -SHRA OVC035
     FM251400 02006KT P6SM -RA OVC025
     FM251800 01007KT 3SM -RA OVC020
     FM252100 VRB03KT P6SM VCSH BKN035
     FM252300 VRB03KT P6SM BKN035
     FM260600 VRB03KT P6SM SCT250
     FM261100 05004KT P6SM VCSH BKN030=

USA.gov is the U.S. government's official web portal to all federal, state and local government web resources and services.